Time;durP1;ratioP1;P1;durP2;ratioP2;P2;SDS_P1;SDS_P2;PMS_P1;PMS_P2;Temp;Humidity;BMP_temperature;BMP_pressure;BME280_temperature;BME280_humidity;BME280_pressure;Samples;Min_cycle;Max_cycle;Signal;HPM_P1;HPM_P2
2024/03/13 00:01:50;;;;;;;;;;;7.00;99.90;;;;;;5048834;28;20365;-74
2024/03/13 00:04:17;;;;;;;;;;;7.00;99.90;;;;;;5048643;28;19912;-74
2024/03/13 00:06:43;;;;;;;;;;;6.90;99.90;;;;;;5049851;28;19905;-74
2024/03/13 00:09:08;;;;;;;;;;;6.90;99.90;;;;;;5048520;28;19950;-74
2024/03/13 00:11:34;;;;;;;;;;;6.90;99.90;;;;;;5048418;28;20366;-74
2024/03/13 00:14:01;;;;;;;;;;;6.90;99.90;;;;;;5048491;28;20593;-74
2024/03/13 00:16:27;;;;;;;;;;;6.90;99.90;;;;;;5049827;28;19995;-74
2024/03/13 00:18:52;;;;;;;;;;;6.90;99.90;;;;;;5048650;28;19908;-73
2024/03/13 00:21:18;;;;;;;;;;;6.90;99.90;;;;;;5048492;28;20004;-74
2024/03/13 00:23:43;;;;;;;;;;;6.90;99.90;;;;;;5049070;28;20506;-74
2024/03/13 00:26:10;;;;;;;;;;;6.90;99.90;;;;;;5052462;28;19915;-74
2024/03/13 00:28:35;;;;;;;;;;;6.90;99.90;;;;;;5053923;28;19912;-74
2024/03/13 00:31:03;;;;;;;;;;;7.00;99.90;;;;;;5052536;28;20281;-74
2024/03/13 00:33:29;;;;;;;;;;;7.00;99.90;;;;;;5052350;28;19950;-74
2024/03/13 00:35:55;;;;;;;;;;;7.00;99.90;;;;;;5052494;28;20737;-74
2024/03/13 00:38:21;;;;;;;;;;;7.00;99.90;;;;;;5052350;28;19962;-73
2024/03/13 00:40:48;;;;;;;;;;;6.90;99.90;;;;;;5052605;28;19908;-74
2024/03/13 00:43:14;;;;;;;;;;;6.90;99.90;;;;;;5052243;28;19938;-73
2024/03/13 00:45:39;;;;;;;;;;;6.90;99.90;;;;;;5052404;28;19909;-74
2024/03/13 00:48:05;;;;;;;;;;;6.90;99.90;;;;;;5053447;28;19927;-74
2024/03/13 00:50:31;;;;;;;;;;;6.80;99.90;;;;;;5053476;28;19908;-74
2024/03/13 00:52:56;;;;;;;;;;;6.80;99.90;;;;;;5052047;28;19905;-74
2024/03/13 00:55:23;;;;;;;;;;;6.80;99.90;;;;;;5053469;28;19909;-74
2024/03/13 00:57:49;;;;;;;;;;;6.80;99.90;;;;;;5052075;28;19905;-73
2024/03/13 01:00:18;;;;;;;;;;;6.80;99.90;;;;;;5053236;28;19912;-75
2024/03/13 01:02:45;;;;;;;;;;;6.80;99.90;;;;;;5052188;28;20381;-74
2024/03/13 01:05:13;;;;;;;;;;;6.80;99.90;;;;;;5053143;28;19962;-73
2024/03/13 01:07:40;;;;;;;;;;;6.80;99.90;;;;;;5051795;28;19909;-74
2024/03/13 01:10:07;;;;;;;;;;;6.80;99.90;;;;;;5051803;28;19905;-74
2024/03/13 01:12:34;;;;;;;;;;;6.80;99.90;;;;;;5051760;28;19951;-75
2024/03/13 01:15:00;;;;;;;;;;;6.80;99.90;;;;;;5051683;28;20345;-73
2024/03/13 01:17:25;;;;;;;;;;;6.90;99.90;;;;;;5053067;28;20007;-74
2024/03/13 01:19:51;;;;;;;;;;;7.00;99.90;;;;;;5053013;28;19928;-75
2024/03/13 01:22:19;;;;;;;;;;;7.10;99.90;;;;;;5051410;28;20007;-74
2024/03/13 01:24:46;;;;;;;;;;;7.10;99.90;;;;;;5052907;28;20043;-73
2024/03/13 01:27:11;;;;;;;;;;;7.30;99.90;;;;;;5051524;28;20610;-74
2024/03/13 01:29:38;;;;;;;;;;;7.30;99.90;;;;;;5052801;28;19912;-74
2024/03/13 01:32:04;;;;;;;;;;;7.40;99.90;;;;;;5051514;28;20385;-74
2024/03/13 01:34:30;;;;;;;;;;;7.50;99.90;;;;;;5050974;28;19923;-74
2024/03/13 01:39:40;;;;;;;;;;;7.60;99.90;;;;;;5053795;28;19973;-74
2024/03/13 01:56:21;;;;;;;;;;;8.10;99.90;;;;;;5052541;28;19962;-74
2024/03/13 01:59:02;;;;;;;;;;;8.20;99.90;;;;;;5052309;28;19908;-74
2024/03/13 02:04:12;;;;;;;;;;;8.30;99.90;;;;;;5052510;28;20380;-73
2024/03/13 02:06:37;;;;;;;;;;;8.40;99.90;;;;;;5052096;28;19905;-74
2024/03/13 02:09:03;;;;;;;;;;;8.40;99.90;;;;;;5050808;28;19995;-74
2024/03/13 02:11:28;;;;;;;;;;;8.50;99.90;;;;;;5050631;28;19993;-74
2024/03/13 02:13:55;;;;;;;;;;;8.50;99.90;;;;;;5052018;28;19913;-74
2024/03/13 02:16:21;;;;;;;;;;;8.60;99.90;;;;;;5054129;28;19963;-74
2024/03/13 02:18:49;;;;;;;;;;;8.60;99.90;;;;;;5053742;28;19904;-76
2024/03/13 02:21:14;;;;;;;;;;;8.60;99.90;;;;;;5056281;28;20268;-75
2024/03/13 02:23:40;;;;;;;;;;;8.60;99.90;;;;;;5054591;28;19999;-74
2024/03/13 02:26:06;;;;;;;;;;;8.70;99.90;;;;;;5056349;28;20357;-75
2024/03/13 02:28:37;;;;;;;;;;;8.70;99.90;;;;;;5057405;28;19905;-75
2024/03/13 02:31:07;;;;;;;;;;;8.70;99.90;;;;;;5057370;28;19905;-74
2024/03/13 02:33:32;;;;;;;;;;;8.60;99.90;;;;;;5053434;28;20490;-77
2024/03/13 02:35:59;;;;;;;;;;;8.60;99.90;;;;;;5051860;28;19992;-74
2024/03/13 02:38:24;;;;;;;;;;;8.60;99.90;;;;;;5051605;28;19913;-74
2024/03/13 02:40:50;;;;;;;;;;;8.60;99.90;;;;;;5051455;28;19912;-74
2024/03/13 02:43:15;;;;;;;;;;;8.60;99.90;;;;;;5050059;28;19923;-74
2024/03/13 02:45:42;;;;;;;;;;;8.60;99.90;;;;;;5051310;28;20385;-72
2024/03/13 02:48:08;;;;;;;;;;;8.70;99.90;;;;;;5050491;28;19904;-73
2024/03/13 02:50:33;;;;;;;;;;;8.70;99.90;;;;;;5049882;28;20290;-74
2024/03/13 02:52:59;;;;;;;;;;;8.80;99.90;;;;;;5051264;28;19905;-74
2024/03/13 02:55:24;;;;;;;;;;;8.90;99.90;;;;;;5051079;28;20006;-74
2024/03/13 02:57:50;;;;;;;;;;;8.90;99.90;;;;;;5051083;28;19906;-74
2024/03/13 03:00:16;;;;;;;;;;;8.90;99.90;;;;;;5051094;28;19909;-74
2024/03/13 03:02:41;;;;;;;;;;;8.80;99.90;;;;;;5049529;28;19913;-74
2024/03/13 03:05:07;;;;;;;;;;;8.80;99.90;;;;;;5050980;28;20327;-74
2024/03/13 03:07:33;;;;;;;;;;;8.80;99.90;;;;;;5050880;28;20003;-74
2024/03/13 03:09:59;;;;;;;;;;;8.80;99.90;;;;;;5050798;28;19904;-74
2024/03/13 03:12:26;;;;;;;;;;;8.80;99.90;;;;;;5050740;28;20015;-73
2024/03/13 03:14:54;;;;;;;;;;;8.70;99.90;;;;;;5049502;28;20011;-74
2024/03/13 03:17:21;;;;;;;;;;;8.70;99.90;;;;;;5050683;28;19908;-74
2024/03/13 03:19:49;;;;;;;;;;;8.60;99.90;;;;;;5050664;28;19908;-73
2024/03/13 03:22:15;;;;;;;;;;;8.60;99.90;;;;;;5050522;28;19912;-74
2024/03/13 03:24:41;;;;;;;;;;;8.60;99.90;;;;;;5050602;28;19920;-74
2024/03/13 03:27:06;;;;;;;;;;;8.50;99.90;;;;;;5050623;28;19905;-74
2024/03/13 03:29:32;;;;;;;;;;;8.50;99.90;;;;;;5050501;28;19927;-74
2024/03/13 03:31:59;;;;;;;;;;;8.50;99.90;;;;;;5048901;28;20341;-74
2024/03/13 03:34:25;;;;;;;;;;;8.50;99.90;;;;;;5050192;28;19964;-72
2024/03/13 03:36:52;;;;;;;;;;;8.50;99.90;;;;;;5050359;28;19951;-74
2024/03/13 03:39:18;;;;;;;;;;;8.50;99.90;;;;;;5049149;28;19916;-74
2024/03/13 03:41:46;;;;;;;;;;;8.40;99.90;;;;;;5050240;28;19909;-74
2024/03/13 03:44:12;;;;;;;;;;;8.40;99.90;;;;;;5048961;28;19909;-74
2024/03/13 03:46:38;;;;;;;;;;;8.40;99.90;;;;;;5048854;28;19916;-73
2024/03/13 03:49:05;;;;;;;;;;;8.40;99.90;;;;;;5050656;28;19909;-74
2024/03/13 03:51:31;;;;;;;;;;;8.40;99.90;;;;;;5049104;28;19912;-74
2024/03/13 03:53:57;;;;;;;;;;;8.40;99.90;;;;;;5048950;28;19904;-74
2024/03/13 03:56:23;;;;;;;;;;;8.30;99.90;;;;;;5050159;28;19962;-74
2024/03/13 03:58:50;;;;;;;;;;;8.40;99.90;;;;;;5050339;28;20281;-74
2024/03/13 04:01:16;;;;;;;;;;;8.40;99.90;;;;;;5048597;28;19905;-74
2024/03/13 04:03:42;;;;;;;;;;;8.30;99.90;;;;;;5048604;28;19963;-74
2024/03/13 04:06:08;;;;;;;;;;;8.40;99.90;;;;;;5049890;28;19951;-74
2024/03/13 04:08:33;;;;;;;;;;;8.30;99.90;;;;;;5050015;28;19911;-74
2024/03/13 04:10:59;;;;;;;;;;;8.30;99.90;;;;;;5049790;28;19908;-72
2024/03/13 04:13:24;;;;;;;;;;;8.30;99.90;;;;;;5048596;28;19985;-74
2024/03/13 04:15:50;;;;;;;;;;;8.30;99.90;;;;;;5048446;28;20528;-73
2024/03/13 04:18:19;;;;;;;;;;;8.30;99.90;;;;;;5048410;28;20448;-74
2024/03/13 04:20:45;;;;;;;;;;;8.20;99.90;;;;;;5048466;28;19951;-74
2024/03/13 04:23:13;;;;;;;;;;;8.20;99.90;;;;;;5048321;28;19916;-74
2024/03/13 04:25:44;;;;;;;;;;;8.20;99.90;;;;;;5049675;28;19963;-73
2024/03/13 04:28:11;;;;;;;;;;;8.20;99.90;;;;;;5048444;28;20488;-74
2024/03/13 04:30:36;;;;;;;;;;;8.20;99.90;;;;;;5049574;28;20293;-74
2024/03/13 04:33:02;;;;;;;;;;;8.20;99.90;;;;;;5048404;28;19905;-72
2024/03/13 04:35:27;;;;;;;;;;;8.20;99.90;;;;;;5049568;28;19924;-74
2024/03/13 04:37:53;;;;;;;;;;;8.20;99.90;;;;;;5048359;28;20384;-74
2024/03/13 04:40:19;;;;;;;;;;;8.20;99.90;;;;;;5048232;28;19909;-74
2024/03/13 04:42:45;;;;;;;;;;;8.20;99.90;;;;;;5048232;28;20009;-74
2024/03/13 04:45:11;;;;;;;;;;;8.20;99.90;;;;;;5048218;28;19940;-74
2024/03/13 04:47:36;;;;;;;;;;;8.10;99.90;;;;;;5049547;28;20038;-74
2024/03/13 04:50:03;;;;;;;;;;;8.20;99.90;;;;;;5048196;28;19990;-74
2024/03/13 04:52:29;;;;;;;;;;;8.10;99.90;;;;;;5048783;28;20053;-75
2024/03/13 04:54:55;;;;;;;;;;;8.10;99.90;;;;;;5049781;28;20359;-74
2024/03/13 04:57:21;;;;;;;;;;;8.10;99.90;;;;;;5048572;28;19912;-74
2024/03/13 04:59:46;;;;;;;;;;;8.10;99.90;;;;;;5049997;28;19908;-73
2024/03/13 05:02:14;;;;;;;;;;;8.10;99.90;;;;;;5049666;28;19913;-75
2024/03/13 05:04:42;;;;;;;;;;;8.10;99.90;;;;;;5049684;28;19916;-74
2024/03/13 05:07:09;;;;;;;;;;;8.10;99.90;;;;;;5054206;28;20436;-77
2024/03/13 05:09:35;;;;;;;;;;;8.00;99.90;;;;;;5055645;28;19967;-76
2024/03/13 05:12:03;;;;;;;;;;;8.10;99.90;;;;;;5052153;28;19905;-74
2024/03/13 05:14:29;;;;;;;;;;;8.10;99.90;;;;;;5053405;28;19940;-74
2024/03/13 05:16:55;;;;;;;;;;;8.10;99.90;;;;;;5052906;28;19913;-74
2024/03/13 05:19:21;;;;;;;;;;;8.10;99.90;;;;;;5052998;28;19904;-74
2024/03/13 05:21:46;;;;;;;;;;;8.10;99.90;;;;;;5051375;28;19908;-74
2024/03/13 05:24:32;;;;;;;;;;;8.10;99.90;;;;;;5051425;28;19915;-74
2024/03/13 05:26:58;;;;;;;;;;;8.10;99.90;;;;;;5052783;28;20043;-74
2024/03/13 05:29:25;;;;;;;;;;;8.10;99.90;;;;;;5053043;28;19912;-74
2024/03/13 05:31:51;;;;;;;;;;;8.20;99.90;;;;;;5054930;28;20667;-73
2024/03/13 05:34:16;;;;;;;;;;;8.20;99.90;;;;;;5056914;28;19948;-79
2024/03/13 05:36:42;;;;;;;;;;;8.20;99.90;;;;;;5051792;28;19974;-74
2024/03/13 05:39:12;;;;;;;;;;;8.20;99.90;;;;;;5057510;28;19913;-76
2024/03/13 05:41:38;;;;;;;;;;;8.20;99.90;;;;;;5056575;28;20365;-79
2024/03/13 05:44:04;;;;;;;;;;;8.20;99.90;;;;;;5054011;28;19966;-74
2024/03/13 05:46:30;;;;;;;;;;;8.30;99.90;;;;;;5051705;28;19947;-73
2024/03/13 05:48:55;;;;;;;;;;;8.30;99.90;;;;;;5047530;28;19947;-73
2024/03/13 05:51:21;;;;;;;;;;;8.40;99.90;;;;;;5050815;28;19970;-73
2024/03/13 05:53:46;;;;;;;;;;;8.40;99.90;;;;;;5052248;28;19908;-73
2024/03/13 05:56:12;;;;;;;;;;;8.40;99.90;;;;;;5051919;28;19911;-73
2024/03/13 05:58:37;;;;;;;;;;;8.50;99.90;;;;;;5052802;28;19915;-74
2024/03/13 06:01:03;;;;;;;;;;;8.50;99.90;;;;;;5052874;28;19911;-74
2024/03/13 06:03:29;;;;;;;;;;;8.50;99.90;;;;;;5052525;28;20343;-74
2024/03/13 06:05:55;;;;;;;;;;;8.60;99.90;;;;;;5050805;28;19940;-71
2024/03/13 06:08:20;;;;;;;;;;;8.70;99.90;;;;;;5052102;28;19904;-74
2024/03/13 06:10:47;;;;;;;;;;;8.70;99.90;;;;;;5050928;28;19904;-73
2024/03/13 06:13:12;;;;;;;;;;;8.80;99.90;;;;;;5050883;28;20277;-73
2024/03/13 06:15:38;;;;;;;;;;;8.90;99.90;;;;;;5051981;28;19908;-74
2024/03/13 06:18:03;;;;;;;;;;;8.90;99.90;;;;;;5051000;28;19909;-74
2024/03/13 06:20:29;;;;;;;;;;;8.90;99.90;;;;;;5051834;28;19908;-73
2024/03/13 06:22:55;;;;;;;;;;;9.00;99.90;;;;;;5050503;28;19918;-74
2024/03/13 06:25:23;;;;;;;;;;;9.00;99.90;;;;;;5051697;28;19905;-73
2024/03/13 06:27:50;;;;;;;;;;;9.10;99.90;;;;;;5050219;28;19904;-72
2024/03/13 06:30:16;;;;;;;;;;;9.30;99.90;;;;;;5051482;28;20373;-73
2024/03/13 06:32:41;;;;;;;;;;;9.40;99.90;;;;;;5051632;28;19944;-74
2024/03/13 06:35:07;;;;;;;;;;;9.50;99.90;;;;;;5051549;28;19968;-73
2024/03/13 06:37:33;;;;;;;;;;;9.60;99.90;;;;;;5050177;28;19908;-74
2024/03/13 06:39:59;;;;;;;;;;;9.70;99.90;;;;;;5049877;28;20015;-74
2024/03/13 06:42:25;;;;;;;;;;;9.80;99.90;;;;;;5051323;28;20027;-74
2024/03/13 06:44:51;;;;;;;;;;;9.80;99.90;;;;;;5051341;28;19913;-74
2024/03/13 06:47:17;;;;;;;;;;;9.80;99.90;;;;;;5032998;28;20320;-73
2024/03/13 06:49:44;;;;;;;;;;;9.80;99.90;;;;;;5051028;28;19904;-73
2024/03/13 06:52:12;;;;;;;;;;;9.70;99.90;;;;;;5050912;28;19995;-73
2024/03/13 06:54:39;;;;;;;;;;;9.70;99.90;;;;;;5051163;28;20322;-73
2024/03/13 06:57:05;;;;;;;;;;;9.80;99.90;;;;;;5050931;28;20201;-73
2024/03/13 06:59:31;;;;;;;;;;;9.70;99.90;;;;;;5049797;28;19985;-74
2024/03/13 07:01:56;;;;;;;;;;;9.80;99.90;;;;;;5050588;28;19913;-74
2024/03/13 07:04:22;;;;;;;;;;;9.80;99.90;;;;;;5049607;28;19912;-73
2024/03/13 07:06:48;;;;;;;;;;;9.80;99.90;;;;;;5049862;28;20351;-74
2024/03/13 07:09:14;;;;;;;;;;;9.80;99.90;;;;;;5050791;28;19911;-74
2024/03/13 07:11:39;;;;;;;;;;;9.90;99.90;;;;;;5049719;28;19912;-72
2024/03/13 07:14:06;;;;;;;;;;;10.00;99.90;;;;;;5050898;28;20407;-74
2024/03/13 07:16:32;;;;;;;;;;;10.10;99.90;;;;;;5050735;28;19909;-75
2024/03/13 07:18:59;;;;;;;;;;;10.20;99.90;;;;;;5049128;28;19922;-74
2024/03/13 07:21:25;;;;;;;;;;;10.20;99.90;;;;;;5050176;28;20441;-74
2024/03/13 07:23:50;;;;;;;;;;;10.30;99.90;;;;;;5048936;28;19913;-74
2024/03/13 07:26:16;;;;;;;;;;;10.30;99.90;;;;;;5049269;28;19958;-74
2024/03/13 07:28:41;;;;;;;;;;;10.30;99.90;;;;;;5049317;28;19904;-74
2024/03/13 07:31:09;;;;;;;;;;;10.40;99.90;;;;;;5050362;28;19940;-74
2024/03/13 07:33:37;;;;;;;;;;;10.40;99.90;;;;;;5048567;28;20373;-73
2024/03/13 07:36:04;;;;;;;;;;;10.40;99.90;;;;;;5050327;28;20254;-73
2024/03/13 07:38:31;;;;;;;;;;;10.40;99.90;;;;;;5050409;28;20010;-74
2024/03/13 07:40:57;;;;;;;;;;;10.50;99.90;;;;;;5049328;28;20354;-74
2024/03/13 07:43:22;;;;;;;;;;;10.50;99.90;;;;;;5050302;28;19957;-74
2024/03/13 07:45:48;;;;;;;;;;;10.50;99.90;;;;;;5048990;28;20003;-74
2024/03/13 07:48:14;;;;;;;;;;;10.60;99.90;;;;;;5048892;28;19955;-73
2024/03/13 07:50:39;;;;;;;;;;;10.60;99.90;;;;;;5050097;28;19909;-73
2024/03/13 07:53:05;;;;;;;;;;;10.70;99.90;;;;;;5050138;28;19916;-74
2024/03/13 07:55:31;;;;;;;;;;;10.80;99.90;;;;;;5050086;28;19971;-74
2024/03/13 07:57:57;;;;;;;;;;;10.80;99.90;;;;;;5050060;28;19905;-73
2024/03/13 08:00:22;;;;;;;;;;;10.90;99.90;;;;;;5049307;28;19912;-74
2024/03/13 08:02:48;;;;;;;;;;;10.90;99.90;;;;;;5049887;28;19912;-74
2024/03/13 08:05:16;;;;;;;;;;;11.00;99.90;;;;;;5048732;28;19911;-74
2024/03/13 08:07:44;;;;;;;;;;;11.10;99.90;;;;;;5048600;28;20341;-74
2024/03/13 08:10:10;;;;;;;;;;;11.20;99.90;;;;;;5048741;28;19916;-74
2024/03/13 08:12:36;;;;;;;;;;;11.30;99.90;;;;;;5048608;28;19905;-74
2024/03/13 08:15:02;;;;;;;;;;;11.30;99.90;;;;;;5049803;28;19916;-74
2024/03/13 08:17:27;;;;;;;;;;;11.30;99.90;;;;;;5049807;28;20258;-74
2024/03/13 08:19:53;;;;;;;;;;;11.40;99.90;;;;;;5049838;28;19951;-75
2024/03/13 08:22:18;;;;;;;;;;;11.50;99.90;;;;;;5049686;28;19915;-74
2024/03/13 08:24:44;;;;;;;;;;;11.50;99.90;;;;;;5048531;28;19912;-74
2024/03/13 08:27:10;;;;;;;;;;;11.60;99.90;;;;;;5049802;28;19951;-74
2024/03/13 08:29:36;;;;;;;;;;;11.70;99.90;;;;;;5048409;28;19904;-74
2024/03/13 08:32:05;;;;;;;;;;;11.70;99.90;;;;;;5049548;28;19970;-74
2024/03/13 08:34:32;;;;;;;;;;;11.90;99.90;;;;;;5049441;28;20313;-74
2024/03/13 08:36:58;;;;;;;;;;;12.00;99.90;;;;;;5048309;28;19952;-74
2024/03/13 08:39:27;;;;;;;;;;;12.10;99.90;;;;;;5048114;28;19953;-74
2024/03/13 08:41:54;;;;;;;;;;;12.30;99.90;;;;;;5047956;28;19963;-74
2024/03/13 08:44:19;;;;;;;;;;;12.50;99.90;;;;;;5049482;28;19913;-74
2024/03/13 08:46:45;;;;;;;;;;;12.60;99.90;;;;;;5052214;28;19908;-74
2024/03/13 08:49:10;;;;;;;;;;;12.70;99.90;;;;;;5053383;28;20437;-74
2024/03/13 08:51:36;;;;;;;;;;;12.90;99.90;;;;;;5052126;28;20369;-74
2024/03/13 08:54:01;;;;;;;;;;;13.10;99.90;;;;;;5052332;28;19995;-74
2024/03/13 08:56:27;;;;;;;;;;;13.40;99.90;;;;;;5051971;28;19951;-73
2024/03/13 08:58:53;;;;;;;;;;;13.70;99.90;;;;;;5053475;28;20466;-74
2024/03/13 09:01:18;;;;;;;;;;;13.90;99.90;;;;;;5051772;28;19916;-74
2024/03/13 09:03:44;;;;;;;;;;;14.10;99.90;;;;;;5051941;28;19970;-74
2024/03/13 09:06:16;;;;;;;;;;;14.10;99.90;;;;;;5053042;28;19916;-74
2024/03/13 09:08:44;;;;;;;;;;;14.00;99.90;;;;;;5053253;28;19931;-73
2024/03/13 09:11:12;;;;;;;;;;;14.00;99.90;;;;;;5053098;28;19909;-73
2024/03/13 09:13:40;;;;;;;;;;;13.90;99.90;;;;;;5051738;28;19916;-74
2024/03/13 09:16:05;;;;;;;;;;;13.90;99.90;;;;;;5051594;28;20636;-75
2024/03/13 09:18:31;;;;;;;;;;;13.90;99.90;;;;;;5052962;28;19909;-73
2024/03/13 09:20:57;;;;;;;;;;;13.80;99.90;;;;;;5051556;28;19934;-74
2024/03/13 09:23:22;;;;;;;;;;;13.80;99.90;;;;;;5052784;28;19955;-74
2024/03/13 09:25:48;;;;;;;;;;;13.70;99.90;;;;;;5051363;28;20283;-74
2024/03/13 09:28:14;;;;;;;;;;;13.60;99.90;;;;;;5051355;28;20012;-75
2024/03/13 09:30:40;;;;;;;;;;;13.60;99.90;;;;;;5051206;28;20012;-74
2024/03/13 09:33:08;;;;;;;;;;;13.60;99.90;;;;;;5052758;28;20398;-73
2024/03/13 09:35:34;;;;;;;;;;;13.60;99.90;;;;;;5051472;28;19965;-75
2024/03/13 09:37:59;;;;;;;;;;;13.50;99.90;;;;;;5051490;28;20015;-74
2024/03/13 09:40:25;;;;;;;;;;;13.50;99.90;;;;;;5051190;28;19975;-74
2024/03/13 09:42:54;;;;;;;;;;;13.50;99.90;;;;;;5052536;28;19917;-74
2024/03/13 09:45:22;;;;;;;;;;;13.40;99.90;;;;;;5052364;28;19912;-74
2024/03/13 09:47:49;;;;;;;;;;;13.40;99.90;;;;;;5051177;28;19909;-75
2024/03/13 09:50:15;;;;;;;;;;;13.40;99.90;;;;;;5051400;28;19909;-75
2024/03/13 09:52:42;;;;;;;;;;;13.50;99.90;;;;;;5052357;28;19904;-74
2024/03/13 09:55:12;;;;;;;;;;;13.60;99.90;;;;;;5052245;28;19909;-74
2024/03/13 09:57:37;;;;;;;;;;;13.80;99.90;;;;;;5050897;28;19909;-74
2024/03/13 10:00:22;;;;;;;;;;;14.10;99.90;;;;;;5050838;28;19912;-74
2024/03/13 10:02:51;;;;;;;;;;;14.20;99.90;;;;;;5052094;28;19913;-74
2024/03/13 10:05:19;;;;;;;;;;;14.30;99.90;;;;;;5052028;28;19991;-74
2024/03/13 10:07:49;;;;;;;;;;;14.40;99.90;;;;;;5052048;28;19912;-73
2024/03/13 10:10:24;;;;;;;;;;;14.50;99.90;;;;;;5050820;28;19913;-74
2024/03/13 10:12:49;;;;;;;;;;;14.50;99.90;;;;;;5050694;28;19995;-74
2024/03/13 10:15:16;;;;;;;;;;;14.60;99.90;;;;;;5050737;28;20024;-71
2024/03/13 10:17:44;;;;;;;;;;;14.70;99.90;;;;;;5051997;28;19909;-71
2024/03/13 10:20:13;;;;;;;;;;;14.80;99.90;;;;;;5050363;28;19904;-75
2024/03/13 10:22:39;;;;;;;;;;;14.80;99.90;;;;;;5051769;28;19919;-75
2024/03/13 10:25:06;;;;;;;;;;;14.80;99.90;;;;;;5051826;28;19909;-73
2024/03/13 10:27:32;;;;;;;;;;;14.90;99.90;;;;;;5050448;28;19908;-75
2024/03/13 10:29:58;;;;;;;;;;;15.00;99.90;;;;;;5050454;28;20000;-75
2024/03/13 10:32:24;;;;;;;;;;;15.10;99.90;;;;;;5051835;28;20027;-75
2024/03/13 10:34:50;;;;;;;;;;;15.20;99.90;;;;;;5051292;28;19920;-74
2024/03/13 10:37:17;;;;;;;;;;;15.40;99.90;;;;;;5051623;28;19905;-72
2024/03/13 10:39:42;;;;;;;;;;;15.40;99.90;;;;;;5051675;28;19955;-74
2024/03/13 10:42:08;;;;;;;;;;;15.60;99.90;;;;;;5051381;28;19948;-74
2024/03/13 10:44:34;;;;;;;;;;;15.60;99.90;;;;;;5050016;28;19908;-74
2024/03/13 10:47:00;;;;;;;;;;;15.50;99.90;;;;;;5051509;28;19991;-74
2024/03/13 10:49:27;;;;;;;;;;;15.60;99.90;;;;;;5049884;28;19955;-74
2024/03/13 10:52:00;;;;;;;;;;;15.60;99.90;;;;;;5049964;28;19915;-74
2024/03/13 10:54:26;;;;;;;;;;;15.60;99.90;;;;;;5051306;28;19962;-74
2024/03/13 10:56:52;;;;;;;;;;;15.40;99.90;;;;;;5049719;28;19912;-72
2024/03/13 10:59:19;;;;;;;;;;;15.20;99.90;;;;;;5051068;28;20289;-74
2024/03/13 11:01:47;;;;;;;;;;;15.00;99.90;;;;;;5050965;28;19909;-74
2024/03/13 11:04:14;;;;;;;;;;;14.90;99.90;;;;;;5049787;28;19967;-73
2024/03/13 11:06:40;;;;;;;;;;;14.60;99.90;;;;;;5050727;28;19978;-73
2024/03/13 11:09:15;;;;;;;;;;;14.50;99.90;;;;;;5050317;28;19913;-71
2024/03/13 11:11:41;;;;;;;;;;;14.40;99.90;;;;;;5050875;28;19978;-72
2024/03/13 11:14:09;;;;;;;;;;;14.30;99.90;;;;;;5049534;28;20314;-75
2024/03/13 11:16:37;;;;;;;;;;;14.20;99.90;;;;;;5050317;28;19908;-73
2024/03/13 11:19:04;;;;;;;;;;;14.00;99.90;;;;;;5050576;28;19916;-74
2024/03/13 11:21:39;;;;;;;;;;;14.00;99.90;;;;;;5049362;28;20396;-74
2024/03/13 11:24:09;;;;;;;;;;;13.90;99.90;;;;;;5048967;28;19952;-75
2024/03/13 11:26:38;;;;;;;;;;;13.80;99.90;;;;;;5050653;28;19916;-75
2024/03/13 11:29:09;;;;;;;;;;;13.80;99.90;;;;;;5049247;28;19905;-74
2024/03/13 11:31:36;;;;;;;;;;;13.60;99.90;;;;;;5050553;28;19911;-74
2024/03/13 11:34:01;;;;;;;;;;;13.60;99.90;;;;;;5050314;28;19920;-75
2024/03/13 11:36:28;;;;;;;;;;;13.50;99.90;;;;;;5050140;28;20327;-74
2024/03/13 11:38:53;;;;;;;;;;;13.50;99.90;;;;;;5048576;28;19911;-74
2024/03/13 11:41:19;;;;;;;;;;;13.50;99.90;;;;;;5048551;28;19905;-73
2024/03/13 11:43:45;;;;;;;;;;;13.50;99.90;;;;;;5048880;28;19927;-73
2024/03/13 11:46:11;;;;;;;;;;;13.60;99.90;;;;;;5048858;28;19905;-74
2024/03/13 11:48:37;;;;;;;;;;;13.60;99.90;;;;;;5050451;28;20049;-74
2024/03/13 11:51:06;;;;;;;;;;;13.60;99.90;;;;;;5050213;28;20524;-74
2024/03/13 11:53:34;;;;;;;;;;;13.50;99.90;;;;;;5045888;28;19909;-75
2024/03/13 11:56:01;;;;;;;;;;;13.50;99.90;;;;;;5048454;28;19904;-74
2024/03/13 11:58:33;;;;;;;;;;;13.50;99.90;;;;;;5050133;28;19909;-75
2024/03/13 12:00:59;;;;;;;;;;;13.50;99.90;;;;;;5050051;28;19959;-73
2024/03/13 12:03:33;;;;;;;;;;;13.40;99.90;;;;;;5049701;28;20045;-75
2024/03/13 12:06:00;;;;;;;;;;;13.40;99.90;;;;;;5050021;28;20262;-74
2024/03/13 12:08:26;;;;;;;;;;;13.40;99.90;;;;;;5049985;28;19953;-74
2024/03/13 12:10:53;;;;;;;;;;;13.60;99.90;;;;;;5048320;28;19983;-75
2024/03/13 12:13:18;;;;;;;;;;;13.60;99.90;;;;;;5048804;28;20058;-75
2024/03/13 12:15:46;;;;;;;;;;;13.60;99.90;;;;;;5050159;28;20379;-74
2024/03/13 12:18:12;;;;;;;;;;;13.70;99.90;;;;;;5048363;28;19915;-74
2024/03/13 12:20:40;;;;;;;;;;;13.60;99.90;;;;;;5048549;28;19909;-74
2024/03/13 12:23:09;;;;;;;;;;;13.70;99.90;;;;;;5048253;28;19955;-74
2024/03/13 12:25:34;;;;;;;;;;;13.70;99.90;;;;;;5048279;28;20005;-75
2024/03/13 12:28:00;;;;;;;;;;;13.70;99.90;;;;;;5048381;28;20001;-74
2024/03/13 12:30:29;;;;;;;;;;;13.70;99.90;;;;;;5049643;28;19911;-74
2024/03/13 12:32:57;;;;;;;;;;;13.60;99.90;;;;;;5049699;28;20126;-74
2024/03/13 12:35:22;;;;;;;;;;;13.50;99.90;;;;;;5049264;28;20454;-74
2024/03/13 12:37:49;;;;;;;;;;;13.50;99.90;;;;;;5049521;28;19991;-73
2024/03/13 12:40:16;;;;;;;;;;;13.50;99.90;;;;;;5048062;28;19905;-74
2024/03/13 12:42:41;;;;;;;;;;;13.50;99.90;;;;;;5047970;28;19927;-74
2024/03/13 12:45:08;;;;;;;;;;;13.60;99.90;;;;;;5049474;28;20343;-74
2024/03/13 12:47:34;;;;;;;;;;;13.70;99.90;;;;;;5049271;28;19987;-75
2024/03/13 12:50:00;;;;;;;;;;;13.90;99.90;;;;;;5049316;28;20048;-74
2024/03/13 12:52:29;;;;;;;;;;;14.00;99.90;;;;;;5049436;28;20015;-74
2024/03/13 12:54:55;;;;;;;;;;;14.10;99.90;;;;;;5049399;28;20005;-74
2024/03/13 12:57:20;;;;;;;;;;;14.20;99.90;;;;;;5043787;28;19916;-74
2024/03/13 12:59:46;;;;;;;;;;;14.20;99.90;;;;;;5049077;28;19909;-74
2024/03/13 13:02:15;;;;;;;;;;;14.00;99.90;;;;;;5049235;28;19988;-74
2024/03/13 13:04:44;;;;;;;;;;;13.90;99.90;;;;;;5047983;28;19920;-74
2024/03/13 13:07:10;;;;;;;;;;;14.00;99.90;;;;;;5049386;28;20572;-74
2024/03/13 13:09:36;;;;;;;;;;;13.80;99.90;;;;;;5049319;28;20392;-74
2024/03/13 13:12:01;;;;;;;;;;;13.80;99.90;;;;;;5048008;28;19999;-75
2024/03/13 13:14:27;;;;;;;;;;;13.90;99.90;;;;;;5047988;28;19909;-73
2024/03/13 13:16:52;;;;;;;;;;;13.80;99.90;;;;;;5049349;28;19919;-75
2024/03/13 13:19:18;;;;;;;;;;;13.80;99.90;;;;;;5047830;28;19904;-74
2024/03/13 13:21:44;;;;;;;;;;;13.80;99.90;;;;;;5047562;28;19923;-74
2024/03/13 13:24:12;;;;;;;;;;;13.80;99.90;;;;;;5047808;28;19913;-74
2024/03/13 13:26:38;;;;;;;;;;;13.80;99.90;;;;;;5047795;28;19948;-74
2024/03/13 13:29:04;;;;;;;;;;;13.80;99.90;;;;;;5048986;28;20077;-74
2024/03/13 13:31:29;;;;;;;;;;;13.70;99.90;;;;;;5049535;28;19910;-74
2024/03/13 13:33:58;;;;;;;;;;;13.70;99.90;;;;;;5052397;28;19928;-73
2024/03/13 13:36:23;;;;;;;;;;;13.80;99.90;;;;;;5051444;28;20403;-74
2024/03/13 13:38:49;;;;;;;;;;;13.60;99.90;;;;;;5052643;28;19905;-74
2024/03/13 13:41:14;;;;;;;;;;;13.50;99.90;;;;;;5052340;28;19908;-74
2024/03/13 13:43:40;;;;;;;;;;;13.50;99.90;;;;;;5051017;28;19919;-74
2024/03/13 13:46:10;;;;;;;;;;;13.60;99.90;;;;;;5050758;28;19906;-75
2024/03/13 13:48:35;;;;;;;;;;;13.60;99.90;;;;;;5050793;28;19913;-73
2024/03/13 13:51:01;;;;;;;;;;;13.50;99.90;;;;;;5050896;28;20392;-74
2024/03/13 13:53:29;;;;;;;;;;;13.50;99.90;;;;;;5052076;28;19915;-74
2024/03/13 13:55:57;;;;;;;;;;;13.60;99.90;;;;;;5050773;28;20006;-74
2024/03/13 13:58:25;;;;;;;;;;;13.70;99.90;;;;;;5050642;28;19919;-73
2024/03/13 14:00:51;;;;;;;;;;;13.70;99.90;;;;;;5052085;28;19915;-74
2024/03/13 14:03:20;;;;;;;;;;;13.60;99.90;;;;;;5050573;28;20011;-72
2024/03/13 14:05:46;;;;;;;;;;;13.60;99.90;;;;;;5050475;28;20293;-74
2024/03/13 14:08:14;;;;;;;;;;;13.60;99.90;;;;;;5051881;28;19916;-74
2024/03/13 14:10:40;;;;;;;;;;;13.50;99.90;;;;;;5050420;28;19905;-74
2024/03/13 14:13:07;;;;;;;;;;;13.50;99.90;;;;;;5051991;28;19912;-73
2024/03/13 14:15:33;;;;;;;;;;;13.50;99.90;;;;;;5051970;28;19908;-73
2024/03/13 14:17:58;;;;;;;;;;;13.50;99.90;;;;;;5050405;28;20579;-73
2024/03/13 14:20:24;;;;;;;;;;;13.40;99.90;;;;;;5050782;28;19955;-72
2024/03/13 14:22:53;;;;;;;;;;;13.40;99.90;;;;;;5051508;28;19912;-75
2024/03/13 14:25:19;;;;;;;;;;;13.30;99.90;;;;;;5051770;28;20003;-73
2024/03/13 14:27:45;;;;;;;;;;;13.20;99.90;;;;;;5051712;28;19912;-73
2024/03/13 14:30:11;;;;;;;;;;;13.10;99.90;;;;;;5050195;28;19911;-74
2024/03/13 14:32:36;;;;;;;;;;;13.10;99.90;;;;;;5050452;28;19915;-74
2024/03/13 14:35:02;;;;;;;;;;;13.10;99.90;;;;;;5050178;28;19917;-73
2024/03/13 14:37:31;;;;;;;;;;;13.10;99.90;;;;;;5051098;28;19908;-74
2024/03/13 14:39:57;;;;;;;;;;;13.00;99.90;;;;;;5051255;28;19954;-74